Time;durP1;ratioP1;P1;durP2;ratioP2;P2;SDS_P1;SDS_P2;PMS_P1;PMS_P2;Temp;Humidity;BMP_temperature;BMP_pressure;BME280_temperature;BME280_humidity;BME280_pressure;Samples;Min_cycle;Max_cycle;Signal;HPM_P1;HPM_P2
2021/12/19 00:01:31;;;;;;;9.57;5.57;;;;;;;;;;5017357;28;20041;-67
2021/12/19 00:09:10;;;;;;;8.98;5.60;;;;;;;;;;5017181;28;20084;-67
2021/12/19 00:11:37;;;;;;;9.57;6.07;;;;;;;;;;5016799;28;20038;-67
2021/12/19 00:14:05;;;;;;;10.13;5.40;;;;;;;;;;5017545;28;20392;-67
2021/12/19 00:16:31;;;;;;;10.45;5.63;;;;;;;;;;5015964;28;20396;-67
2021/12/19 00:18:57;;;;;;;12.77;6.25;;;;;;;;;;5014582;28;20045;-67
2021/12/19 00:21:27;;;;;;;12.98;5.78;;;;;;;;;;5017014;28;20850;-67
2021/12/19 00:23:54;;;;;;;12.13;5.80;;;;;;;;;;5017504;28;20049;-67
2021/12/19 00:26:20;;;;;;;12.20;5.60;;;;;;;;;;5017368;28;20457;-67
2021/12/19 00:28:47;;;;;;;13.43;7.10;;;;;;;;;;5017857;28;20046;-67
2021/12/19 00:31:13;;;;;;;13.02;6.63;;;;;;;;;;5017734;28;20052;-67
2021/12/19 00:33:41;;;;;;;11.90;5.47;;;;;;;;;;5017510;28;20388;-67
2021/12/19 00:36:07;;;;;;;11.90;6.22;;;;;;;;;;5018098;28;20548;-67
2021/12/19 00:38:34;;;;;;;12.50;6.30;;;;;;;;;;5018033;28;20404;-67
2021/12/19 00:41:00;;;;;;;15.35;6.68;;;;;;;;;;5017335;28;20068;-67
2021/12/19 00:43:37;;;;;;;14.18;7.30;;;;;;;;;;4999233;28;20050;-67
2021/12/19 00:46:10;;;;;;;15.48;7.63;;;;;;;;;;5017489;28;20065;-67
2021/12/19 00:48:37;;;;;;;14.98;7.18;;;;;;;;;;5016826;28;20030;-67
2021/12/19 00:51:04;;;;;;;17.42;7.53;;;;;;;;;;5017499;28;20132;-67
2021/12/19 00:53:30;;;;;;;14.20;7.78;;;;;;;;;;5016876;28;20461;-67
2021/12/19 00:55:56;;;;;;;13.63;7.82;;;;;;;;;;5017231;28;20046;-67
2021/12/19 00:58:23;;;;;;;16.17;7.75;;;;;;;;;;5018150;28;20048;-67
2021/12/19 01:00:51;;;;;;;15.02;7.07;;;;;;;;;;5017141;28;20100;-67
2021/12/19 01:03:17;;;;;;;16.05;7.00;;;;;;;;;;5017216;28;20467;-67
2021/12/19 01:05:44;;;;;;;17.77;7.90;;;;;;;;;;5017806;28;20457;-67
2021/12/19 01:08:12;;;;;;;15.30;7.40;;;;;;;;;;5017334;28;20042;-67
2021/12/19 01:10:40;;;;;;;15.25;7.38;;;;;;;;;;5016262;28;20042;-67
2021/12/19 01:13:06;;;;;;;16.92;7.45;;;;;;;;;;5016812;28;20038;-67
2021/12/19 01:15:34;;;;;;;13.15;6.70;;;;;;;;;;5019240;28;20038;-67
2021/12/19 01:18:01;;;;;;;8.43;4.60;;;;;;;;;;5019713;28;20151;-67
2021/12/19 01:20:28;;;;;;;7.55;4.07;;;;;;;;;;5021150;28;20045;-67
2021/12/19 01:22:55;;;;;;;6.57;3.15;;;;;;;;;;5021068;28;20053;-67
2021/12/19 01:25:22;;;;;;;8.25;3.00;;;;;;;;;;5020100;28;20049;-67
2021/12/19 01:27:48;;;;;;;5.63;2.35;;;;;;;;;;5020565;28;20102;-67
2021/12/19 01:30:16;;;;;;;4.45;2.45;;;;;;;;;;5020314;28;20105;-67
2021/12/19 01:32:44;;;;;;;5.13;2.58;;;;;;;;;;5020277;28;20053;-67
2021/12/19 01:35:13;;;;;;;4.30;2.25;;;;;;;;;;5020949;28;20038;-67
2021/12/19 01:37:39;;;;;;;6.63;2.50;;;;;;;;;;5021198;28;20041;-67
2021/12/19 01:40:07;;;;;;;5.05;2.75;;;;;;;;;;5020700;28;20496;-67
2021/12/19 01:42:34;;;;;;;6.30;3.60;;;;;;;;;;5019682;28;20042;-67
2021/12/19 01:45:02;;;;;;;7.10;3.50;;;;;;;;;;5020071;28;20042;-67
2021/12/19 01:47:28;;;;;;;6.32;3.20;;;;;;;;;;5019624;28;20378;-67
2021/12/19 01:49:55;;;;;;;4.28;2.22;;;;;;;;;;5020411;28;20049;-67
2021/12/19 01:52:21;;;;;;;3.80;2.20;;;;;;;;;;5020709;28;20076;-67
2021/12/19 01:54:49;;;;;;;5.72;2.80;;;;;;;;;;5020133;28;20087;-67
2021/12/19 01:57:16;;;;;;;4.88;2.75;;;;;;;;;;5020273;28;20049;-67
2021/12/19 01:59:42;;;;;;;4.35;2.30;;;;;;;;;;5019537;28;20057;-67
2021/12/19 02:02:08;;;;;;;3.40;1.95;;;;;;;;;;5018699;28;20093;-67
2021/12/19 02:04:34;;;;;;;4.63;2.33;;;;;;;;;;5019470;28;20678;-67
2021/12/19 02:07:01;;;;;;;3.85;1.70;;;;;;;;;;5018965;28;20104;-67
2021/12/19 02:09:27;;;;;;;2.60;1.55;;;;;;;;;;5018609;28;20386;-67
2021/12/19 02:11:54;;;;;;;1.88;1.05;;;;;;;;;;5019836;28;20409;-67
2021/12/19 02:14:20;;;;;;;2.90;1.40;;;;;;;;;;5019602;28;20365;-67
2021/12/19 02:16:47;;;;;;;1.80;1.10;;;;;;;;;;5019691;28;20471;-67
2021/12/19 02:19:13;;;;;;;3.88;1.45;;;;;;;;;;5020208;28;20050;-67
2021/12/19 02:21:40;;;;;;;3.15;1.63;;;;;;;;;;5019220;28;20038;-67
2021/12/19 02:24:10;;;;;;;3.47;1.88;;;;;;;;;;5019435;28;20095;-67
2021/12/19 02:26:40;;;;;;;8.30;2.00;;;;;;;;;;5019372;28;20038;-67
2021/12/19 02:29:06;;;;;;;4.47;1.80;;;;;;;;;;5019347;28;20058;-67
2021/12/19 02:31:33;;;;;;;4.38;1.75;;;;;;;;;;5018368;28;20049;-67
2021/12/19 02:36:40;;;;;;;2.83;1.30;;;;;;;;;;5018198;28;20057;-67
2021/12/19 02:48:14;;;;;;;3.80;0.85;;;;;;;;;;5017458;28;20065;-67
2021/12/19 02:50:31;;;;;;;1.83;0.88;;;;;;;;;;5016101;28;20481;-67
2021/12/19 02:52:59;;;;;;;2.03;0.90;;;;;;;;;;5018111;28;20042;-67
2021/12/19 02:55:25;;;;;;;1.50;0.98;;;;;;;;;;5018676;28;20046;-67
2021/12/19 02:57:52;;;;;;;1.90;1.05;;;;;;;;;;5018755;28;20092;-67
2021/12/19 03:00:21;;;;;;;2.05;1.63;;;;;;;;;;5001020;28;20048;-67
2021/12/19 03:02:48;;;;;;;2.97;1.10;;;;;;;;;;5018094;28;20056;-67
2021/12/19 03:05:14;;;;;;;5.53;1.30;;;;;;;;;;5017544;28;20048;-67
2021/12/19 03:07:43;;;;;;;2.30;1.20;;;;;;;;;;5018370;28;20401;-67
2021/12/19 03:10:42;;;;;;;1.25;0.77;;;;;;;;;;5018182;28;20084;-67
2021/12/19 03:18:30;;;;;;;1.20;0.70;;;;;;;;;;5018511;28;20076;-67
2021/12/19 03:20:56;;;;;;;2.22;0.80;;;;;;;;;;5018879;28;20038;-67
2021/12/19 03:23:22;;;;;;;4.18;1.00;;;;;;;;;;5018775;28;20049;-67
2021/12/19 03:25:49;;;;;;;1.58;1.00;;;;;;;;;;5018586;28;20382;-67
2021/12/19 03:28:15;;;;;;;1.67;1.10;;;;;;;;;;5017839;28;20109;-67
2021/12/19 03:30:42;;;;;;;3.60;1.20;;;;;;;;;;5017261;28;20050;-67
2021/12/19 03:33:09;;;;;;;1.95;1.30;;;;;;;;;;5017911;28;20124;-67
2021/12/19 03:35:36;;;;;;;2.70;1.08;;;;;;;;;;5018519;28;20053;-67
2021/12/19 03:38:04;;;;;;;3.42;1.20;;;;;;;;;;5016797;28;20047;-67
2021/12/19 03:40:39;;;;;;;2.45;1.00;;;;;;;;;;5017544;28;20571;-67
2021/12/19 03:43:09;;;;;;;2.03;1.10;;;;;;;;;;5017226;28;20060;-67
2021/12/19 03:45:36;;;;;;;2.08;1.10;;;;;;;;;;5016934;28;20441;-67
2021/12/19 03:48:04;;;;;;;2.70;1.17;;;;;;;;;;5018205;28;20049;-67
2021/12/19 03:50:33;;;;;;;3.22;1.00;;;;;;;;;;5017975;28;20049;-67
2021/12/19 03:53:00;;;;;;;2.28;1.10;;;;;;;;;;5017680;28;20469;-67
2021/12/19 03:55:27;;;;;;;1.38;0.93;;;;;;;;;;5017842;28;20065;-67
2021/12/19 03:57:53;;;;;;;1.55;0.90;;;;;;;;;;5017980;28;20084;-67
2021/12/19 04:00:24;;;;;;;2.45;1.27;;;;;;;;;;5017359;28;20045;-67
2021/12/19 04:02:55;;;;;;;1.10;0.88;;;;;;;;;;5018060;28;20056;-67
2021/12/19 04:05:21;;;;;;;3.28;1.20;;;;;;;;;;5017887;28;20088;-67
2021/12/19 04:07:47;;;;;;;4.05;1.10;;;;;;;;;;5018205;28;20046;-67
2021/12/19 04:10:14;;;;;;;1.40;1.00;;;;;;;;;;5018003;28;20046;-67
2021/12/19 04:12:42;;;;;;;2.15;0.98;;;;;;;;;;5017655;28;20038;-67
2021/12/19 04:15:09;;;;;;;1.85;0.93;;;;;;;;;;5018189;28;20716;-67
2021/12/19 04:17:36;;;;;;;2.67;1.10;;;;;;;;;;5017960;28;20737;-67
2021/12/19 04:20:04;;;;;;;1.48;1.00;;;;;;;;;;5017509;28;20649;-67
2021/12/19 04:22:30;;;;;;;4.82;1.27;;;;;;;;;;5017252;28;20042;-67
2021/12/19 04:24:56;;;;;;;2.90;1.25;;;;;;;;;;4999674;28;20099;-67
2021/12/19 04:27:24;;;;;;;1.67;1.13;;;;;;;;;;5017237;28;20042;-67
2021/12/19 04:29:53;;;;;;;2.70;1.30;;;;;;;;;;4998864;28;20408;-67
2021/12/19 04:32:24;;;;;;;1.92;1.00;;;;;;;;;;5017947;28;20038;-67
2021/12/19 04:34:51;;;;;;;3.08;1.20;;;;;;;;;;5017677;28;20077;-67
2021/12/19 04:40:11;;;;;;;1.85;0.80;;;;;;;;;;5017056;28;20064;-67
2021/12/19 04:53:30;;;;;;;2.67;1.25;;;;;;;;;;5019968;28;20088;-67
2021/12/19 05:03:43;;;;;;;4.10;1.38;;;;;;;;;;5020905;28;20096;-67
2021/12/19 05:06:36;;;;;;;3.15;1.58;;;;;;;;;;5020196;28;20042;-67
2021/12/19 05:14:46;;;;;;;3.50;1.20;;;;;;;;;;5000866;28;20072;-67
2021/12/19 05:17:18;;;;;;;1.55;1.20;;;;;;;;;;5020665;28;20045;-67
2021/12/19 05:20:02;;;;;;;1.73;0.80;;;;;;;;;;5021003;28;20050;-67
2021/12/19 05:22:31;;;;;;;4.25;1.10;;;;;;;;;;5020934;28;20045;-67
2021/12/19 05:25:07;;;;;;;2.70;1.02;;;;;;;;;;5020444;28;20080;-67
2021/12/19 05:27:35;;;;;;;3.28;1.02;;;;;;;;;;5000677;28;20068;-67
2021/12/19 05:30:01;;;;;;;3.92;1.50;;;;;;;;;;5000813;28;20521;-67
2021/12/19 05:32:28;;;;;;;5.70;1.48;;;;;;;;;;5001131;28;20109;-67
2021/12/19 05:34:54;;;;;;;7.20;2.15;;;;;;;;;;5001004;28;20050;-67
2021/12/19 05:45:35;;;;;;;11.48;2.55;;;;;;;;;;5000809;28;20097;-67
2021/12/19 05:48:01;;;;;;;5.35;2.25;;;;;;;;;;5001245;28;20093;-67
2021/12/19 05:50:27;;;;;;;10.50;2.90;;;;;;;;;;4982335;28;20093;-67
2021/12/19 05:52:53;;;;;;;7.50;2.72;;;;;;;;;;5001186;28;20117;-67
2021/12/19 05:55:20;;;;;;;7.60;3.28;;;;;;;;;;5000861;28;20465;-67
2021/12/19 05:57:47;;;;;;;9.95;3.38;;;;;;;;;;4982644;28;20050;-67
2021/12/19 06:00:15;;;;;;;14.05;3.83;;;;;;;;;;5000457;28;20069;-67
2021/12/19 06:02:42;;;;;;;12.27;3.45;;;;;;;;;;5000312;28;20074;-67
2021/12/19 06:05:09;;;;;;;17.58;4.35;;;;;;;;;;5000129;28;20081;-67
2021/12/19 06:07:35;;;;;;;10.55;4.35;;;;;;;;;;5000294;28;20038;-67
2021/12/19 06:10:01;;;;;;;11.25;3.75;;;;;;;;;;5000530;28;20038;-67
2021/12/19 06:12:28;;;;;;;13.07;4.80;;;;;;;;;;4982767;28;20053;-67
2021/12/19 06:14:54;;;;;;;10.43;4.50;;;;;;;;;;5000302;28;20046;-67
2021/12/19 06:17:20;;;;;;;15.63;4.90;;;;;;;;;;5000323;28;20401;-67
2021/12/19 06:19:46;;;;;;;13.05;5.60;;;;;;;;;;5000328;28;20035;-67
2021/12/19 06:22:12;;;;;;;16.95;5.72;;;;;;;;;;4999608;28;20488;-67
2021/12/19 06:24:39;;;;;;;11.15;5.32;;;;;;;;;;5000743;28;20039;-67
2021/12/19 06:27:05;;;;;;;20.88;5.93;;;;;;;;;;5016096;28;20087;-66
2021/12/19 06:29:32;;;;;;;16.83;6.10;;;;;;;;;;5018559;28;20057;-67
2021/12/19 06:31:58;;;;;;;18.30;6.38;;;;;;;;;;5019873;28;20068;-67
2021/12/19 06:34:24;;;;;;;20.80;6.90;;;;;;;;;;5019621;28;20689;-67
2021/12/19 06:36:52;;;;;;;21.13;7.63;;;;;;;;;;5018769;28;20719;-67
2021/12/19 06:39:20;;;;;;;18.23;7.28;;;;;;;;;;5019043;28;20129;-67
2021/12/19 06:41:46;;;;;;;21.58;7.85;;;;;;;;;;5018792;28;20049;-67
2021/12/19 06:44:13;;;;;;;17.15;7.82;;;;;;;;;;5018579;28;20042;-67
2021/12/19 06:46:40;;;;;;;20.63;8.32;;;;;;;;;;5018780;28;20089;-67
2021/12/19 06:49:06;;;;;;;17.20;7.63;;;;;;;;;;5019259;28;20057;-67
2021/12/19 06:51:33;;;;;;;22.10;8.35;;;;;;;;;;5018443;28;20416;-67
2021/12/19 06:53:59;;;;;;;23.30;7.97;;;;;;;;;;5019296;28;20042;-67
2021/12/19 06:56:26;;;;;;;22.23;8.32;;;;;;;;;;5018646;28;20046;-67
2021/12/19 06:58:53;;;;;;;21.83;8.75;;;;;;;;;;5018328;28;20042;-67
2021/12/19 07:01:21;;;;;;;22.90;8.15;;;;;;;;;;5018761;28;20053;-67
2021/12/19 07:03:47;;;;;;;22.48;8.88;;;;;;;;;;5019083;28;20537;-67
2021/12/19 07:06:14;;;;;;;16.85;7.82;;;;;;;;;;5018834;28;20715;-67
2021/12/19 07:08:41;;;;;;;25.02;8.40;;;;;;;;;;5018876;28;20045;-67
2021/12/19 07:11:08;;;;;;;24.88;8.02;;;;;;;;;;5018983;28;20045;-67
2021/12/19 07:13:34;;;;;;;22.75;7.63;;;;;;;;;;5017443;28;20102;-67
2021/12/19 07:16:01;;;;;;;18.05;8.00;;;;;;;;;;5019287;28;20053;-67
2021/12/19 07:18:29;;;;;;;21.13;7.63;;;;;;;;;;5017888;28;20042;-67
2021/12/19 07:20:56;;;;;;;25.35;8.02;;;;;;;;;;5018424;28;20049;-67
2021/12/19 07:23:22;;;;;;;25.55;8.13;;;;;;;;;;5018262;28;20046;-67
2021/12/19 07:25:49;;;;;;;22.45;8.98;;;;;;;;;;5018265;28;20489;-67
2021/12/19 07:28:15;;;;;;;27.60;8.98;;;;;;;;;;5017535;28;20046;-67
2021/12/19 07:30:43;;;;;;;28.75;8.43;;;;;;;;;;5018076;28;20133;-67
2021/12/19 07:33:10;;;;;;;22.92;7.32;;;;;;;;;;5018284;28;20073;-67
2021/12/19 07:35:38;;;;;;;21.65;7.90;;;;;;;;;;5016677;28;20037;-67
2021/12/19 07:38:05;;;;;;;20.70;7.25;;;;;;;;;;5018119;28;20046;-67
2021/12/19 07:40:39;;;;;;;18.27;6.78;;;;;;;;;;5017286;28;20092;-67
2021/12/19 07:43:10;;;;;;;21.52;6.65;;;;;;;;;;5016601;28;20049;-67
2021/12/19 07:45:36;;;;;;;13.63;5.40;;;;;;;;;;5016861;28;20049;-67
2021/12/19 07:48:03;;;;;;;16.30;5.07;;;;;;;;;;5017494;28;20038;-67
2021/12/19 07:50:29;;;;;;;17.50;4.53;;;;;;;;;;5017120;28;20137;-67
2021/12/19 07:52:55;;;;;;;20.95;4.97;;;;;;;;;;5017673;28;20129;-67
2021/12/19 07:55:23;;;;;;;21.05;6.32;;;;;;;;;;5017793;28;20128;-67
2021/12/19 07:57:49;;;;;;;23.17;5.35;;;;;;;;;;5017448;28;20049;-67
2021/12/19 08:00:16;;;;;;;12.50;4.78;;;;;;;;;;5017310;28;20042;-67
2021/12/19 08:02:42;;;;;;;15.82;5.15;;;;;;;;;;5017714;28;20459;-67
2021/12/19 08:05:09;;;;;;;16.15;5.57;;;;;;;;;;5016623;28;20076;-67
2021/12/19 08:07:38;;;;;;;14.93;4.47;;;;;;;;;;5016432;28;20057;-67
2021/12/19 08:12:36;;;;;;;18.38;4.43;;;;;;;;;;5015663;28;20447;-67
2021/12/19 08:15:03;;;;;;;16.98;4.90;;;;;;;;;;5016394;28;20042;-67
2021/12/19 08:17:31;;;;;;;14.40;4.93;;;;;;;;;;5016356;28;20038;-67
2021/12/19 08:19:57;;;;;;;16.85;4.93;;;;;;;;;;5016347;28;20052;-67
2021/12/19 08:22:23;;;;;;;15.70;5.00;;;;;;;;;;5016572;28;20038;-67
2021/12/19 08:24:50;;;;;;;17.35;4.10;;;;;;;;;;5016748;28;20037;-67
2021/12/19 08:27:16;;;;;;;16.77;4.70;;;;;;;;;;5016020;28;20041;-67
2021/12/19 08:29:42;;;;;;;13.65;4.10;;;;;;;;;;5016068;28;20081;-67
2021/12/19 08:32:09;;;;;;;15.65;4.70;;;;;;;;;;5016552;28;20065;-67
2021/12/19 08:34:35;;;;;;;14.20;4.43;;;;;;;;;;5016190;28;20049;-67
2021/12/19 08:37:02;;;;;;;12.70;4.10;;;;;;;;;;5016400;28;20473;-67
2021/12/19 08:39:31;;;;;;;12.63;4.32;;;;;;;;;;5016263;28;20168;-67
2021/12/19 08:41:59;;;;;;;19.30;4.72;;;;;;;;;;5016348;28;20463;-67
2021/12/19 08:44:26;;;;;;;14.93;4.32;;;;;;;;;;5015436;28;20036;-67
2021/12/19 08:46:52;;;;;;;16.10;4.45;;;;;;;;;;5016759;28;20049;-67
2021/12/19 08:49:18;;;;;;;15.55;4.43;;;;;;;;;;5016202;28;20042;-67
2021/12/19 08:51:46;;;;;;;18.20;4.25;;;;;;;;;;5017008;28;20045;-67
2021/12/19 08:54:12;;;;;;;12.60;4.50;;;;;;;;;;5017055;28;20061;-67
2021/12/19 08:56:40;;;;;;;9.98;4.35;;;;;;;;;;5015517;28;20042;-67
2021/12/19 08:59:06;;;;;;;13.35;4.20;;;;;;;;;;5016633;28;20070;-67
2021/12/19 09:01:32;;;;;;;15.45;3.90;;;;;;;;;;5015729;28;20050;-67
2021/12/19 09:03:59;;;;;;;9.88;3.45;;;;;;;;;;5015654;28;20050;-67
2021/12/19 09:06:25;;;;;;;10.82;3.03;;;;;;;;;;5016386;28;20038;-67
2021/12/19 09:08:52;;;;;;;15.00;3.80;;;;;;;;;;5016368;28;20069;-67
2021/12/19 09:11:18;;;;;;;12.27;3.42;;;;;;;;;;5014955;28;20057;-67
2021/12/19 09:13:45;;;;;;;15.57;4.00;;;;;;;;;;5016180;28;20038;-67
2021/12/19 09:16:11;;;;;;;18.42;3.53;;;;;;;;;;5016918;28;20555;-67
2021/12/19 09:18:37;;;;;;;19.52;3.95;;;;;;;;;;5015620;28;20046;-67
2021/12/19 09:21:03;;;;;;;12.02;3.35;;;;;;;;;;5016558;28;20046;-67
2021/12/19 09:23:32;;;;;;;20.23;4.28;;;;;;;;;;5016527;28;20176;-67
2021/12/19 09:25:59;;;;;;;10.60;3.63;;;;;;;;;;5016346;28;20088;-67
2021/12/19 09:28:25;;;;;;;15.00;3.70;;;;;;;;;;5015796;28;20053;-67
2021/12/19 09:30:53;;;;;;;9.27;3.47;;;;;;;;;;5016825;28;20046;-67
2021/12/19 09:33:20;;;;;;;19.55;4.03;;;;;;;;;;5015721;28;20076;-67
2021/12/19 09:35:47;;;;;;;14.60;4.25;;;;;;;;;;5018254;28;20042;-67
2021/12/19 09:38:14;;;;;;;15.13;3.55;;;;;;;;;;5020476;28;20042;-67
2021/12/19 09:40:43;;;;;;;21.30;3.28;;;;;;;;;;5019467;28;20119;-67
2021/12/19 09:43:31;;;;;;;20.25;4.50;;;;;;;;;;5020119;28;20107;-67
2021/12/19 09:46:02;;;;;;;13.85;4.22;;;;;;;;;;5019723;28;20038;-67
2021/12/19 09:48:29;;;;;;;12.67;3.80;;;;;;;;;;5019260;28;20074;-67
2021/12/19 09:50:55;;;;;;;11.15;3.78;;;;;;;;;;5020279;28;20037;-67
2021/12/19 09:53:21;;;;;;;19.75;4.18;;;;;;;;;;5020164;28;20041;-67
2021/12/19 09:55:47;;;;;;;12.82;3.55;;;;;;;;;;5020018;28;20037;-67
2021/12/19 09:58:13;;;;;;;11.02;3.38;;;;;;;;;;5020236;28;20038;-67
2021/12/19 10:00:39;;;;;;;7.68;3.00;;;;;;;;;;5019162;28;20133;-67
2021/12/19 10:03:05;;;;;;;13.18;4.00;;;;;;;;;;5018957;28;20042;-67
2021/12/19 10:05:31;;;;;;;11.65;3.20;;;;;;;;;;5019778;28;20048;-67
2021/12/19 10:08:03;;;;;;;10.15;3.30;;;;;;;;;;5019824;28;20038;-67
2021/12/19 10:10:43;;;;;;;12.27;3.10;;;;;;;;;;5020036;28;20103;-67
2021/12/19 10:13:09;;;;;;;15.18;3.40;;;;;;;;;;5020224;28;20138;-67
2021/12/19 10:15:38;;;;;;;10.02;3.20;;;;;;;;;;5019342;28;20481;-67
2021/12/19 10:18:04;;;;;;;14.57;3.58;;;;;;;;;;5001140;28;20139;-67
2021/12/19 10:20:40;;;;;;;12.82;3.47;;;;;;;;;;5020111;28;20053;-67
2021/12/19 10:23:10;;;;;;;14.70;3.15;;;;;;;;;;5018634;28;20042;-67
2021/12/19 10:25:36;;;;;;;14.43;3.90;;;;;;;;;;5018387;28;20129;-67
2021/12/19 10:28:04;;;;;;;10.95;3.10;;;;;;;;;;5018548;28;20110;-67
2021/12/19 10:30:31;;;;;;;11.23;3.38;;;;;;;;;;5018564;28;20042;-67
2021/12/19 10:32:59;;;;;;;13.63;3.38;;;;;;;;;;5018120;28;20401;-67
2021/12/19 10:35:36;;;;;;;9.40;2.75;;;;;;;;;;5019238;28;20091;-67
2021/12/19 10:38:03;;;;;;;12.07;3.33;;;;;;;;;;5018295;28;20571;-67
2021/12/19 10:40:30;;;;;;;11.48;2.80;;;;;;;;;;5018454;28;20034;-67
2021/12/19 10:43:01;;;;;;;17.25;3.10;;;;;;;;;;5001055;28;20081;-67
2021/12/19 10:45:46;;;;;;;10.15;3.28;;;;;;;;;;5001182;28;20473;-67
2021/12/19 10:48:14;;;;;;;9.77;3.03;;;;;;;;;;5017928;28;20065;-67
2021/12/19 10:50:48;;;;;;;9.52;3.35;;;;;;;;;;5019554;28;20121;-67
2021/12/19 10:53:15;;;;;;;15.63;2.97;;;;;;;;;;5018775;28;20409;-67
2021/12/19 10:55:47;;;;;;;12.35;3.30;;;;;;;;;;5018561;28;20565;-67
2021/12/19 10:58:32;;;;;;;13.75;3.65;;;;;;;;;;5001079;28;20081;-67
2021/12/19 11:01:05;;;;;;;14.00;3.08;;;;;;;;;;5018221;28;20046;-67
2021/12/19 11:03:34;;;;;;;14.77;3.13;;;;;;;;;;5017980;28;20050;-67
2021/12/19 11:06:12;;;;;;;14.88;3.15;;;;;;;;;;5019005;28;20590;-67
2021/12/19 11:08:39;;;;;;;15.63;3.20;;;;;;;;;;5018668;28;20062;-67
2021/12/19 11:11:06;;;;;;;11.52;3.35;;;;;;;;;;5018500;28;20166;-67
2021/12/19 11:13:33;;;;;;;13.57;2.80;;;;;;;;;;5018219;28;20050;-67
2021/12/19 11:16:00;;;;;;;12.15;3.55;;;;;;;;;;5018536;28;20042;-67
2021/12/19 11:18:27;;;;;;;13.13;2.80;;;;;;;;;;5018216;28;20121;-67
2021/12/19 11:20:53;;;;;;;13.02;3.17;;;;;;;;;;5018681;28;20046;-67
2021/12/19 11:23:20;;;;;;;13.00;3.05;;;;;;;;;;5018647;28;20046;-67
2021/12/19 11:25:46;;;;;;;12.45;3.03;;;;;;;;;;5018081;28;20491;-67
2021/12/19 11:28:12;;;;;;;9.68;2.80;;;;;;;;;;5018525;28;20054;-67
2021/12/19 11:30:40;;;;;;;13.73;3.00;;;;;;;;;;5017975;28;20049;-67
2021/12/19 11:33:18;;;;;;;11.95;2.88;;;;;;;;;;5018196;28;20038;-67
2021/12/19 11:35:47;;;;;;;11.70;3.45;;;;;;;;;;5019083;28;20045;-67
2021/12/19 11:38:14;;;;;;;12.95;3.13;;;;;;;;;;5018189;28;20400;-67
2021/12/19 11:40:40;;;;;;;12.18;3.15;;;;;;;;;;5018275;28;20072;-67
2021/12/19 11:43:07;;;;;;;16.35;3.50;;;;;;;;;;5018322;28;20064;-67
2021/12/19 11:45:38;;;;;;;12.18;2.90;;;;;;;;;;5018169;28;20037;-67
2021/12/19 11:48:25;;;;;;;15.57;3.17;;;;;;;;;;5001043;28;20515;-67
2021/12/19 11:50:53;;;;;;;15.13;3.30;;;;;;;;;;5019013;28;20243;-67
2021/12/19 11:53:22;;;;;;;14.38;2.80;;;;;;;;;;5018047;28;20516;-67
2021/12/19 11:55:48;;;;;;;11.55;3.03;;;;;;;;;;5019000;28;20042;-67
2021/12/19 11:58:18;;;;;;;21.35;3.17;;;;;;;;;;5017993;28;20045;-67
2021/12/19 12:00:50;;;;;;;15.00;2.70;;;;;;;;;;5017555;28;20377;-67
2021/12/19 12:03:16;;;;;;;21.27;3.22;;;;;;;;;;5018440;28;20050;-67
2021/12/19 12:05:43;;;;;;;14.05;2.55;;;;;;;;;;5019040;28;20096;-67
2021/12/19 12:08:10;;;;;;;12.90;2.58;;;;;;;;;;5017203;28;20048;-67
2021/12/19 12:10:46;;;;;;;16.77;2.80;;;;;;;;;;5018125;28;20408;-67
2021/12/19 12:13:31;;;;;;;14.90;2.40;;;;;;;;;;5016866;28;20096;-67
2021/12/19 12:16:09;;;;;;;13.40;2.22;;;;;;;;;;5016947;28;20088;-67
2021/12/19 12:18:39;;;;;;;12.63;2.65;;;;;;;;;;5017597;28;20092;-67
2021/12/19 12:21:22;;;;;;;18.70;3.10;;;;;;;;;;5018075;28;20053;-67
2021/12/19 12:23:58;;;;;;;17.27;2.55;;;;;;;;;;5016190;28;20425;-67
2021/12/19 12:26:30;;;;;;;12.15;2.33;;;;;;;;;;5017280;28;20050;-67
2021/12/19 12:28:56;;;;;;;17.05;2.72;;;;;;;;;;5016608;28;20050;-67
2021/12/19 12:31:24;;;;;;;19.02;2.90;;;;;;;;;;5016869;28;20046;-67
2021/12/19 12:33:50;;;;;;;14.85;3.08;;;;;;;;;;4999363;28;20045;-67
2021/12/19 12:36:16;;;;;;;10.25;2.92;;;;;;;;;;5017533;28;20038;-67
2021/12/19 12:38:46;;;;;;;16.50;2.63;;;;;;;;;;5016616;28;20331;-67
2021/12/19 12:41:28;;;;;;;14.20;2.67;;;;;;;;;;5017304;28;20045;-67
2021/12/19 12:44:06;;;;;;;16.05;2.88;;;;;;;;;;5016652;28;20085;-67
2021/12/19 12:46:32;;;;;;;14.88;2.55;;;;;;;;;;5016966;28;20041;-67
2021/12/19 12:49:00;;;;;;;13.25;2.22;;;;;;;;;;5016831;28;20041;-67
2021/12/19 12:51:39;;;;;;;12.07;2.45;;;;;;;;;;5017436;28;20506;-67
2021/12/19 12:54:08;;;;;;;16.15;3.00;;;;;;;;;;5016370;28;20484;-67
2021/12/19 12:56:40;;;;;;;17.27;2.90;;;;;;;;;;5016462;28;20053;-67
2021/12/19 12:59:07;;;;;;;14.85;3.33;;;;;;;;;;5016224;28;20045;-67
2021/12/19 13:01:36;;;;;;;18.02;3.13;;;;;;;;;;5015949;28;20085;-67
2021/12/19 13:04:02;;;;;;;16.17;2.85;;;;;;;;;;5016552;28;20042;-67
2021/12/19 13:06:35;;;;;;;15.98;2.65;;;;;;;;;;5016815;28;20044;-67
2021/12/19 13:09:15;;;;;;;16.08;2.65;;;;;;;;;;5015951;28;20026;-67
2021/12/19 13:11:43;;;;;;;18.70;2.88;;;;;;;;;;5020493;28;20234;-67
2021/12/19 13:14:30;;;;;;;15.80;2.60;;;;;;;;;;5020455;28;20131;-67
2021/12/19 13:17:08;;;;;;;11.55;2.55;;;;;;;;;;5020552;28;20038;-67
2021/12/19 13:19:36;;;;;;;15.57;2.72;;;;;;;;;;5020665;28;20045;-67
2021/12/19 13:22:06;;;;;;;19.67;2.83;;;;;;;;;;5020954;28;20492;-67
2021/12/19 13:24:34;;;;;;;18.27;3.15;;;;;;;;;;5020680;28;20038;-67
2021/12/19 13:27:04;;;;;;;13.85;2.50;;;;;;;;;;5002896;28;20050;-67
2021/12/19 13:29:30;;;;;;;17.80;2.40;;;;;;;;;;5020074;28;20076;-67
2021/12/19 13:32:17;;;;;;;15.65;2.55;;;;;;;;;;5020310;28;20050;-67
2021/12/19 13:34:43;;;;;;;18.17;2.75;;;;;;;;;;5020746;28;20049;-67
2021/12/19 13:37:09;;;;;;;16.23;2.85;;;;;;;;;;5020092;28;20487;-67
2021/12/19 13:39:36;;;;;;;21.52;3.22;;;;;;;;;;5020995;28;20045;-67
2021/12/19 13:42:09;;;;;;;17.83;2.95;;;;;;;;;;5020384;28;20048;-67
2021/12/19 13:44:36;;;;;;;15.02;3.10;;;;;;;;;;5020613;28;20042;-67
2021/12/19 13:47:11;;;;;;;12.95;3.17;;;;;;;;;;5020912;28;20121;-67
2021/12/19 13:49:37;;;;;;;16.70;2.70;;;;;;;;;;5020276;28;20362;-67
2021/12/19 13:52:03;;;;;;;12.82;2.72;;;;;;;;;;5019631;28;20454;-67
2021/12/19 13:54:31;;;;;;;20.90;3.05;;;;;;;;;;5020440;28;20050;-67
2021/12/19 13:56:58;;;;;;;21.52;3.60;;;;;;;;;;5020829;28;20066;-67
2021/12/19 13:59:24;;;;;;;24.60;3.00;;;;;;;;;;5019691;28;20060;-67
2021/12/19 14:01:51;;;;;;;14.98;3.60;;;;;;;;;;5020274;28;20121;-67
2021/12/19 14:04:17;;;;;;;17.58;2.80;;;;;;;;;;5019800;28;20049;-67
2021/12/19 14:06:45;;;;;;;16.63;2.88;;;;;;;;;;5020024;28;20038;-67
2021/12/19 14:09:16;;;;;;;13.55;2.53;;;;;;;;;;5001694;28;20054;-67
2021/12/19 14:11:44;;;;;;;16.13;2.58;;;;;;;;;;5019615;28;20388;-67
2021/12/19 14:14:29;;;;;;;13.35;3.40;;;;;;;;;;5019607;28;20050;-67
2021/12/19 14:16:59;;;;;;;10.85;2.28;;;;;;;;;;5019730;28;20049;-67
2021/12/19 14:19:27;;;;;;;25.23;3.15;;;;;;;;;;5019869;28;20054;-67
2021/12/19 14:22:12;;;;;;;16.70;3.67;;;;;;;;;;5019160;28;20042;-67
2021/12/19 14:24:38;;;;;;;14.73;2.92;;;;;;;;;;5019570;28;20057;-67
2021/12/19 14:27:07;;;;;;;17.55;3.15;;;;;;;;;;5020017;28;20042;-67
2021/12/19 14:29:34;;;;;;;14.32;2.60;;;;;;;;;;5019188;28;20729;-67
2021/12/19 14:32:01;;;;;;;14.07;2.60;;;;;;;;;;5019149;28;20050;-67
2021/12/19 14:34:29;;;;;;;18.27;2.92;;;;;;;;;;5019185;28;20045;-67
2021/12/19 14:36:56;;;;;;;18.63;2.80;;;;;;;;;;5019120;28;20041;-67
2021/12/19 14:39:26;;;;;;;17.20;3.63;;;;;;;;;;5018618;28;20045;-67
2021/12/19 14:42:06;;;;;;;17.95;2.70;;;;;;;;;;5001864;28;20556;-67
2021/12/19 14:44:32;;;;;;;18.73;3.05;;;;;;;;;;5018736;28;20073;-67
2021/12/19 14:46:58;;;;;;;18.92;2.70;;;;;;;;;;5018977;28;20045;-67
2021/12/19 14:49:24;;;;;;;16.60;2.40;;;;;;;;;;5019424;28;20496;-67
2021/12/19 14:51:59;;;;;;;16.48;2.53;;;;;;;;;;5018359;28;20038;-67
2021/12/19 14:54:25;;;;;;;24.27;3.50;;;;;;;;;;5018731;28;20041;-67
2021/12/19 14:56:51;;;;;;;15.27;2.60;;;;;;;;;;5018864;28;20504;-67
2021/12/19 14:59:17;;;;;;;15.23;2.22;;;;;;;;;;5017667;28;20177;-67
2021/12/19 15:01:44;;;;;;;7.85;2.05;;;;;;;;;;5017439;28;20046;-67
2021/12/19 15:04:17;;;;;;;13.60;1.88;;;;;;;;;;5017709;28;20042;-67
2021/12/19 15:06:45;;;;;;;12.65;1.70;;;;;;;;;;5017726;28;20377;-67
2021/12/19 15:09:15;;;;;;;9.38;2.35;;;;;;;;;;5016934;28;20041;-67
2021/12/19 15:11:42;;;;;;;9.75;1.60;;;;;;;;;;5017954;28;20073;-67
2021/12/19 15:14:08;;;;;;;8.57;1.80;;;;;;;;;;5017679;28;20101;-67
2021/12/19 15:16:35;;;;;;;5.57;0.70;;;;;;;;;;5018655;28;20401;-67
2021/12/19 15:19:03;;;;;;;8.45;1.58;;;;;;;;;;5018658;28;20460;-67
2021/12/19 15:21:30;;;;;;;5.13;0.98;;;;;;;;;;5017911;28;20048;-67
2021/12/19 15:23:56;;;;;;;7.45;1.08;;;;;;;;;;5018202;28;20069;-67
2021/12/19 15:26:23;;;;;;;9.73;1.50;;;;;;;;;;5018083;28;20046;-67
2021/12/19 15:28:50;;;;;;;5.03;0.95;;;;;;;;;;5017287;28;20053;-67
2021/12/19 15:31:18;;;;;;;6.65;1.35;;;;;;;;;;5018602;28;20038;-67
2021/12/19 15:33:50;;;;;;;11.23;1.30;;;;;;;;;;5017601;28;20100;-67
2021/12/19 15:36:18;;;;;;;3.88;1.00;;;;;;;;;;5017823;28;20149;-67
2021/12/19 15:38:45;;;;;;;9.70;1.20;;;;;;;;;;5018147;28;20081;-67
2021/12/19 15:41:11;;;;;;;6.88;1.15;;;;;;;;;;5018103;28;20079;-67